createdAt,value
2019-01-05T00:00:14.299Z,1023.78
2019-01-05T00:00:49.696Z,1023.74
2019-01-05T00:01:25.339Z,1023.73
2019-01-05T00:02:00.491Z,1023.74
2019-01-05T00:02:35.797Z,1023.69
2019-01-05T00:03:11.135Z,1023.71
2019-01-05T00:03:46.556Z,1023.72
2019-01-05T00:04:21.783Z,1023.75
2019-01-05T00:04:57.176Z,1023.70
2019-01-05T00:05:32.635Z,1023.76
2019-01-05T00:06:08.074Z,1023.70
2019-01-05T00:06:43.597Z,1023.72
2019-01-05T00:07:19.139Z,1023.74
2019-01-05T00:07:54.470Z,1023.70
2019-01-05T00:08:29.793Z,1023.68
2019-01-05T00:09:05.404Z,1023.68
2019-01-05T00:09:40.737Z,1023.61
2019-01-05T00:10:16.084Z,1023.64
2019-01-05T00:10:51.223Z,1023.62
2019-01-05T00:11:26.505Z,1023.60
2019-01-05T00:12:01.699Z,1023.59
2019-01-05T00:12:37.101Z,1023.59
2019-01-05T00:13:12.440Z,1023.58
2019-01-05T00:13:47.831Z,1023.65
2019-01-05T00:14:23.265Z,1023.62
2019-01-05T00:14:58.750Z,1023.63
2019-01-05T00:15:34.165Z,1023.60
2019-01-05T00:16:09.594Z,1023.64
2019-01-05T00:16:44.909Z,1023.55
2019-01-05T00:17:20.249Z,1023.58
2019-01-05T00:17:55.864Z,1023.50
2019-01-05T00:18:31.093Z,1023.54
2019-01-05T00:19:06.634Z,1023.52
2019-01-05T00:19:42.356Z,1023.52
2019-01-05T00:20:17.712Z,1023.55
2019-01-05T00:20:53.044Z,1023.57
2019-01-05T00:21:28.521Z,1023.51
2019-01-05T00:22:04.023Z,1023.55
2019-01-05T00:22:39.350Z,1023.53
2019-01-05T00:23:14.882Z,1023.54
2019-01-05T00:23:50.526Z,1023.54
2019-01-05T00:24:25.831Z,1023.52
2019-01-05T00:25:02.582Z,1023.51
2019-01-05T00:25:37.835Z,1023.55
2019-01-05T00:26:12.975Z,1023.49
2019-01-05T00:26:48.577Z,1023.51
2019-01-05T00:27:24.014Z,1023.46
2019-01-05T00:27:59.443Z,1023.47
2019-01-05T00:28:34.859Z,1023.48
2019-01-05T00:29:10.311Z,1023.49
2019-01-05T00:29:45.608Z,1023.48
2019-01-05T00:30:21.058Z,1023.48
2019-01-05T00:30:56.268Z,1023.47
2019-01-05T00:31:31.694Z,1023.49
2019-01-05T00:32:07.009Z,1023.49
2019-01-05T00:32:42.346Z,1023.47
2019-01-05T00:33:17.743Z,1023.44
2019-01-05T00:33:52.974Z,1023.46
2019-01-05T00:34:28.202Z,1023.44
2019-01-05T00:35:03.428Z,1023.46
2019-01-05T00:35:38.963Z,1023.40
2019-01-05T00:36:14.276Z,1023.40
2019-01-05T00:36:49.502Z,1023.40
2019-01-05T00:37:24.789Z,1023.44
2019-01-05T00:38:00.230Z,1023.41
2019-01-05T00:38:35.333Z,1023.38
2019-01-05T00:39:10.757Z,1023.38
2019-01-05T00:39:46.274Z,1023.38
2019-01-05T00:40:21.759Z,1023.33
2019-01-05T00:40:57.086Z,1023.36
2019-01-05T00:41:32.432Z,1023.36
2019-01-05T00:42:07.962Z,1023.40
2019-01-05T00:42:43.167Z,1023.36
2019-01-05T00:43:18.607Z,1023.33
2019-01-05T00:43:54.027Z,1023.33
2019-01-05T00:44:29.564Z,1023.37
2019-01-05T00:45:04.896Z,1023.35
2019-01-05T00:45:40.221Z,1023.36
2019-01-05T00:46:15.629Z,1023.40
2019-01-05T00:46:51.174Z,1023.34
2019-01-05T00:47:26.577Z,1023.35
2019-01-05T00:48:02.202Z,1023.35
2019-01-05T00:48:37.542Z,1023.33
2019-01-05T00:49:13.140Z,1023.33
2019-01-05T00:49:48.578Z,1023.27
2019-01-05T00:50:23.802Z,1023.32
2019-01-05T00:50:59.309Z,1023.28
2019-01-05T00:51:34.436Z,1023.28
2019-01-05T00:52:09.957Z,1023.27
2019-01-05T00:52:45.171Z,1023.33
2019-01-05T00:53:20.401Z,1023.29
2019-01-05T00:53:55.789Z,1023.26
2019-01-05T00:54:31.040Z,1023.27
2019-01-05T00:55:06.682Z,1023.24
2019-01-05T00:55:42.193Z,1023.23
2019-01-05T00:56:17.559Z,1023.23
2019-01-05T00:56:53.087Z,1023.27
2019-01-05T00:57:28.328Z,1023.26
2019-01-05T00:58:03.734Z,1023.23
2019-01-05T00:58:38.963Z,1023.24
2019-01-05T00:59:14.259Z,1023.19
2019-01-05T00:59:49.785Z,1023.22
2019-01-05T01:00:25.131Z,1023.18
2019-01-05T01:01:00.456Z,1023.20
2019-01-05T01:01:36.004Z,1023.19
2019-01-05T01:02:11.281Z,1023.19
2019-01-05T01:02:46.727Z,1023.12
2019-01-05T01:03:22.343Z,1023.16
2019-01-05T01:03:57.865Z,1023.13
2019-01-05T01:04:33.179Z,1023.15
2019-01-05T01:05:08.533Z,1023.14
2019-01-05T01:05:43.841Z,1023.11
2019-01-05T01:06:19.370Z,1023.11
2019-01-05T01:06:54.790Z,1023.15
2019-01-05T01:07:30.027Z,1023.20
2019-01-05T01:08:05.691Z,1023.12
2019-01-05T01:08:41.094Z,1023.16
2019-01-05T01:09:16.220Z,1023.15
2019-01-05T01:09:51.429Z,1023.12
2019-01-05T01:10:26.887Z,1023.18
2019-01-05T01:11:02.277Z,1023.13
2019-01-05T01:11:37.714Z,1023.13
2019-01-05T01:12:13.320Z,1023.08
2019-01-05T01:12:48.549Z,1023.12
2019-01-05T01:13:23.944Z,1023.10
2019-01-05T01:13:59.470Z,1023.19
2019-01-05T01:14:34.922Z,1023.18
2019-01-05T01:15:10.356Z,1023.19
2019-01-05T01:15:45.676Z,1023.15
2019-01-05T01:16:20.699Z,1023.14
2019-01-05T01:16:55.908Z,1023.12
2019-01-05T01:17:31.011Z,1023.14
2019-01-05T01:18:06.742Z,1023.15
2019-01-05T01:18:42.078Z,1023.10
2019-01-05T01:19:17.520Z,1023.13
2019-01-05T01:19:53.202Z,1023.15
2019-01-05T01:20:28.607Z,1023.14
2019-01-05T01:21:03.724Z,1023.15
2019-01-05T01:21:39.344Z,1023.16
2019-01-05T01:22:14.687Z,1023.12
2019-01-05T01:22:49.688Z,1023.06
2019-01-05T01:23:24.815Z,1023.05
2019-01-05T01:24:00.527Z,1023.09
2019-01-05T01:24:35.959Z,1023.07
2019-01-05T01:25:10.903Z,1023.01
2019-01-05T01:25:46.342Z,1023.06
2019-01-05T01:26:21.876Z,1022.99
2019-01-05T01:26:57.112Z,1022.96
2019-01-05T01:27:32.448Z,1022.99
2019-01-05T01:28:07.984Z,1023.04
2019-01-05T01:28:43.345Z,1023.00
2019-01-05T01:29:18.438Z,1023.02
2019-01-05T01:29:53.877Z,1022.98
2019-01-05T01:30:29.335Z,1022.97
2019-01-05T01:31:04.752Z,1022.91
2019-01-05T01:31:39.965Z,1022.99
2019-01-05T01:32:15.498Z,1023.01
2019-01-05T01:32:50.608Z,1022.88
2019-01-05T01:33:26.164Z,1022.84
2019-01-05T01:34:01.465Z,1022.86
2019-01-05T01:34:36.592Z,1022.85
2019-01-05T01:35:32.191Z,1022.82
2019-01-05T01:36:07.408Z,1022.81
2019-01-05T01:36:43.044Z,1022.77
2019-01-05T01:37:18.371Z,1022.84
2019-01-05T01:37:53.819Z,1022.79
2019-01-05T01:38:29.195Z,1022.74
2019-01-05T01:39:04.533Z,1022.74
2019-01-05T01:39:39.955Z,1022.78
2019-01-05T01:40:15.291Z,1022.77
2019-01-05T01:40:50.825Z,1022.80
2019-01-05T01:41:26.119Z,1022.75
2019-01-05T01:42:01.415Z,1022.80
2019-01-05T01:42:36.620Z,1022.73
2019-01-05T01:43:12.056Z,1022.76
2019-01-05T01:43:47.263Z,1022.72
2019-01-05T01:44:22.781Z,1022.73
2019-01-05T01:44:58.128Z,1022.72
2019-01-05T01:45:33.582Z,1022.73
2019-01-05T01:46:09.151Z,1022.74
2019-01-05T01:46:44.696Z,1022.68
2019-01-05T01:47:20.266Z,1022.70
2019-01-05T01:47:55.903Z,1022.77
2019-01-05T01:48:31.171Z,1022.73
2019-01-05T01:49:06.579Z,1022.68
2019-01-05T01:49:42.003Z,1022.74
2019-01-05T01:50:17.548Z,1022.70
2019-01-05T01:50:52.993Z,1022.71
2019-01-05T01:51:28.255Z,1022.71
2019-01-05T01:52:03.440Z,1022.68
2019-01-05T01:52:38.674Z,1022.62
2019-01-05T01:53:13.969Z,1022.63
2019-01-05T01:53:49.408Z,1022.65
2019-01-05T01:54:24.700Z,1022.64
2019-01-05T01:55:00.182Z,1022.61
2019-01-05T01:55:35.568Z,1022.67
2019-01-05T01:56:10.787Z,1022.66
2019-01-05T01:56:46.300Z,1022.60
2019-01-05T01:57:21.721Z,1022.59
2019-01-05T01:57:56.975Z,1022.63
2019-01-05T01:58:32.286Z,1022.57
2019-01-05T01:59:08.008Z,1022.55
2019-01-05T01:59:43.616Z,1022.50
2019-01-05T02:00:19.286Z,1022.56
2019-01-05T02:00:54.777Z,1022.50
2019-01-05T02:01:30.199Z,1022.49
2019-01-05T02:02:05.611Z,1022.46
2019-01-05T02:02:41.150Z,1022.46
2019-01-05T02:03:16.568Z,1022.48
2019-01-05T02:03:52.085Z,1022.44
2019-01-05T02:04:27.408Z,1022.44
2019-01-05T02:05:02.831Z,1022.46
2019-01-05T02:05:37.954Z,1022.40
2019-01-05T02:06:13.374Z,1022.38
2019-01-05T02:06:48.827Z,1022.42
2019-01-05T02:07:24.020Z,1022.38
2019-01-05T02:07:59.457Z,1022.39
2019-01-05T02:08:34.582Z,1022.37
2019-01-05T02:09:10.023Z,1022.38
2019-01-05T02:09:45.327Z,1022.36
2019-01-05T02:10:20.990Z,1022.34
2019-01-05T02:10:56.104Z,1022.39
2019-01-05T02:11:31.331Z,1022.38
2019-01-05T02:12:07.002Z,1022.42
2019-01-05T02:12:42.496Z,1022.41
2019-01-05T02:13:18.237Z,1022.42
2019-01-05T02:13:53.641Z,1022.42
2019-01-05T02:14:29.085Z,1022.50
2019-01-05T02:15:04.825Z,1022.45
2019-01-05T02:15:40.084Z,1022.44
2019-01-05T02:16:15.194Z,1022.51
2019-01-05T02:16:50.526Z,1022.53
2019-01-05T02:17:25.736Z,1022.47
2019-01-05T02:18:01.285Z,1022.46
2019-01-05T02:18:36.732Z,1022.49
2019-01-05T02:19:12.037Z,1022.50
2019-01-05T02:19:47.363Z,1022.37
2019-01-05T02:20:22.913Z,1022.45
2019-01-05T02:20:58.263Z,1022.38
2019-01-05T02:21:33.381Z,1022.39
2019-01-05T02:22:08.715Z,1022.36
2019-01-05T02:22:44.018Z,1022.40
2019-01-05T02:23:19.462Z,1022.39
2019-01-05T02:23:54.674Z,1022.36
2019-01-05T02:24:30.219Z,1022.36
2019-01-05T02:25:05.585Z,1022.35
2019-01-05T02:25:40.985Z,1022.36
2019-01-05T02:26:16.515Z,1022.35
2019-01-05T02:26:51.889Z,1022.34
2019-01-05T02:27:27.234Z,1022.29
2019-01-05T02:28:02.739Z,1022.27
2019-01-05T02:28:38.090Z,1022.34
2019-01-05T02:29:13.398Z,1022.31
2019-01-05T02:29:48.825Z,1022.22
2019-01-05T02:30:24.046Z,1022.26
2019-01-05T02:30:59.286Z,1022.30
2019-01-05T02:31:34.833Z,1022.21
2019-01-05T02:32:10.254Z,1022.24
2019-01-05T02:32:45.786Z,1022.22
2019-01-05T02:33:21.090Z,1022.29
2019-01-05T02:33:56.217Z,1022.25
2019-01-05T02:34:31.534Z,1022.23
2019-01-05T02:35:07.083Z,1022.24
2019-01-05T02:35:42.201Z,1022.17
2019-01-05T02:36:17.424Z,1022.19
2019-01-05T02:36:52.649Z,1022.19
2019-01-05T02:37:27.954Z,1022.11
2019-01-05T02:38:03.404Z,1022.16
2019-01-05T02:38:39.203Z,1022.11
2019-01-05T02:39:14.532Z,1022.08
2019-01-05T02:39:50.144Z,1022.13
2019-01-05T02:40:25.411Z,1022.12
2019-01-05T02:41:00.600Z,1022.12
2019-01-05T02:41:35.830Z,1022.15
2019-01-05T02:42:13.037Z,1022.14
2019-01-05T02:42:48.567Z,1022.13
2019-01-05T02:43:23.975Z,1022.12
2019-01-05T02:43:59.308Z,1022.07
2019-01-05T02:44:34.637Z,1022.08
2019-01-05T02:45:10.086Z,1022.03
2019-01-05T02:45:45.419Z,1022.00
2019-01-05T02:46:20.634Z,1022.06
2019-01-05T02:46:56.467Z,1022.13
2019-01-05T02:47:31.775Z,1022.06
2019-01-05T02:48:07.327Z,1021.99
2019-01-05T02:48:42.641Z,1022.03
2019-01-05T02:49:17.988Z,1022.02
2019-01-05T02:49:53.496Z,1022.06
2019-01-05T02:50:28.966Z,1022.09
2019-01-05T02:51:04.351Z,1022.03
2019-01-05T02:51:39.790Z,1022.07
2019-01-05T02:52:15.019Z,1022.08
2019-01-05T02:52:50.429Z,1022.08
2019-01-05T02:53:25.756Z,1022.05
2019-01-05T02:54:01.060Z,1022.04
2019-01-05T02:54:36.505Z,1022.01
2019-01-05T02:55:11.776Z,1022.09
2019-01-05T02:55:46.985Z,1022.08
2019-01-05T02:56:22.437Z,1022.10
2019-01-05T02:56:57.654Z,1022.15
2019-01-05T02:57:32.791Z,1022.12
2019-01-05T02:58:08.033Z,1022.12
2019-01-05T02:58:43.245Z,1022.05
2019-01-05T02:59:18.485Z,1022.04
2019-01-05T02:59:53.587Z,1022.05
2019-01-05T03:00:28.959Z,1022.07
2019-01-05T03:01:04.313Z,1022.05
2019-01-05T03:01:39.647Z,1022.07
2019-01-05T03:02:14.876Z,1022.10
2019-01-05T03:02:50.422Z,1022.03
2019-01-05T03:03:25.957Z,1022.05
2019-01-05T03:04:01.536Z,1022.02
2019-01-05T03:04:36.867Z,1022.06
2019-01-05T03:05:12.419Z,1022.08
2019-01-05T03:05:48.458Z,1022.08
2019-01-05T03:06:23.820Z,1022.05
2019-01-05T03:06:59.223Z,1022.05
2019-01-05T03:07:34.552Z,1022.02
2019-01-05T03:08:09.670Z,1021.99
2019-01-05T03:08:44.774Z,1022.01
2019-01-05T03:09:20.109Z,1021.98
2019-01-05T03:09:55.499Z,1021.96
2019-01-05T03:10:31.361Z,1021.94
2019-01-05T03:11:06.927Z,1021.96
2019-01-05T03:11:42.338Z,1021.84
2019-01-05T03:12:17.573Z,1021.85
2019-01-05T03:12:52.869Z,1021.89
2019-01-05T03:13:28.116Z,1021.90
2019-01-05T03:14:03.637Z,1021.85
2019-01-05T03:14:38.842Z,1021.86
2019-01-05T03:15:14.182Z,1021.85
2019-01-05T03:15:49.683Z,1021.75
2019-01-05T03:16:25.042Z,1021.79
2019-01-05T03:17:00.443Z,1021.73
2019-01-05T03:17:35.890Z,1021.76
2019-01-05T03:18:11.441Z,1021.79
2019-01-05T03:18:46.654Z,1021.76
2019-01-05T03:19:22.225Z,1021.72
2019-01-05T03:19:57.698Z,1021.72
2019-01-05T03:20:33.358Z,1021.70
2019-01-05T03:21:08.589Z,1021.76
2019-01-05T03:21:43.931Z,1021.73
2019-01-05T03:22:19.364Z,1021.73
2019-01-05T03:22:54.867Z,1021.71
2019-01-05T03:23:30.317Z,1021.73
2019-01-05T03:24:05.540Z,1021.71
2019-01-05T03:24:40.856Z,1021.66
2019-01-05T03:25:16.277Z,1021.66
2019-01-05T03:25:51.528Z,1021.71
2019-01-05T03:26:26.755Z,1021.69
2019-01-05T03:27:02.183Z,1021.67
2019-01-05T03:27:37.810Z,1021.69
2019-01-05T03:28:13.251Z,1021.69
2019-01-05T03:28:48.568Z,1021.63
2019-01-05T03:29:23.795Z,1021.68
2019-01-05T03:29:59.310Z,1021.71
2019-01-05T03:30:34.663Z,1021.69
2019-01-05T03:31:10.093Z,1021.64
2019-01-05T03:31:45.296Z,1021.63
2019-01-05T03:32:20.751Z,1021.63
2019-01-05T03:32:56.052Z,1021.63
2019-01-05T03:33:31.584Z,1021.61
2019-01-05T03:34:07.105Z,1021.60
2019-01-05T03:34:42.902Z,1021.54
2019-01-05T03:35:18.132Z,1021.58
2019-01-05T03:35:53.536Z,1021.54
2019-01-05T03:36:28.714Z,1021.54
2019-01-05T03:37:04.184Z,1021.52
2019-01-05T03:37:39.418Z,1021.51
2019-01-05T03:38:14.856Z,1021.52
2019-01-05T03:38:50.283Z,1021.50
2019-01-05T03:39:25.442Z,1021.48
2019-01-05T03:40:01.254Z,1021.48
2019-01-05T03:40:36.701Z,1021.48
2019-01-05T03:41:12.118Z,1021.53
2019-01-05T03:41:47.366Z,1021.47
2019-01-05T03:42:22.608Z,1021.50
2019-01-05T03:42:57.861Z,1021.51
2019-01-05T03:43:33.319Z,1021.45
2019-01-05T03:44:08.844Z,1021.44
2019-01-05T03:44:44.298Z,1021.47
2019-01-05T03:45:19.729Z,1021.41
2019-01-05T03:45:55.046Z,1021.44
2019-01-05T03:46:30.762Z,1021.40
2019-01-05T03:47:06.171Z,1021.47
2019-01-05T03:47:41.696Z,1021.40
2019-01-05T03:48:17.269Z,1021.35
2019-01-05T03:48:52.585Z,1021.37
2019-01-05T03:49:27.828Z,1021.33
2019-01-05T03:50:04.250Z,1021.35
2019-01-05T03:50:38.345Z,1021.36
2019-01-05T03:51:13.830Z,1021.32
2019-01-05T03:51:49.357Z,1021.34
2019-01-05T03:52:24.880Z,1021.26
2019-01-05T03:53:00.282Z,1021.31
2019-01-05T03:53:35.766Z,1021.27
2019-01-05T03:54:10.882Z,1021.35
2019-01-05T03:54:46.200Z,1021.30
2019-01-05T03:55:21.539Z,1021.30
2019-01-05T03:55:56.860Z,1021.29
2019-01-05T03:56:32.416Z,1021.33
2019-01-05T03:57:07.532Z,1021.36
2019-01-05T03:57:43.158Z,1021.36
2019-01-05T03:58:18.482Z,1021.31
2019-01-05T03:58:53.838Z,1021.38
2019-01-05T03:59:29.497Z,1021.34
2019-01-05T04:00:04.706Z,1021.33
2019-01-05T04:00:40.042Z,1021.29
2019-01-05T04:01:15.375Z,1021.29
2019-01-05T04:01:50.712Z,1021.27
2019-01-05T04:02:26.275Z,1021.29
2019-01-05T04:03:01.667Z,1021.22
2019-01-05T04:03:36.807Z,1021.29
2019-01-05T04:04:12.033Z,1021.25
2019-01-05T04:04:47.270Z,1021.25
2019-01-05T04:05:22.608Z,1021.26
2019-01-05T04:05:58.215Z,1021.21
2019-01-05T04:06:33.567Z,1021.22
2019-01-05T04:07:08.769Z,1021.23
2019-01-05T04:07:43.926Z,1021.25
2019-01-05T04:08:19.263Z,1021.24
2019-01-05T04:08:54.576Z,1021.21
2019-01-05T04:09:29.980Z,1021.21
2019-01-05T04:10:05.581Z,1021.15
2019-01-05T04:10:40.909Z,1021.16
2019-01-05T04:11:16.244Z,1021.10
2019-01-05T04:11:51.661Z,1021.18
2019-01-05T04:12:27.386Z,1021.09
2019-01-05T04:13:02.720Z,1021.04
2019-01-05T04:13:38.051Z,1021.02
2019-01-05T04:14:13.572Z,1021.03
2019-01-05T04:14:48.929Z,1020.99
2019-01-05T04:15:24.282Z,1020.89
2019-01-05T04:15:59.729Z,1020.94
2019-01-05T04:16:34.918Z,1020.92
2019-01-05T04:17:09.918Z,1020.90
2019-01-05T04:17:45.340Z,1020.96
2019-01-05T04:18:20.681Z,1020.95
2019-01-05T04:18:55.981Z,1020.92
2019-01-05T04:19:31.410Z,1020.96
2019-01-05T04:20:07.065Z,1021.00
2019-01-05T04:20:42.498Z,1020.96
2019-01-05T04:21:17.939Z,1020.96
2019-01-05T04:21:53.148Z,1020.94
2019-01-05T04:22:28.386Z,1020.94
2019-01-05T04:23:03.699Z,1020.91
2019-01-05T04:23:39.038Z,1020.87
2019-01-05T04:24:14.171Z,1020.88
2019-01-05T04:24:49.376Z,1020.90
2019-01-05T04:25:25.034Z,1020.92
2019-01-05T04:26:00.349Z,1020.90
2019-01-05T04:26:35.987Z,1020.94
2019-01-05T04:27:11.392Z,1020.95
2019-01-05T04:27:46.617Z,1020.95
2019-01-05T04:28:21.844Z,1020.96
2019-01-05T04:28:57.049Z,1020.95
2019-01-05T04:29:32.487Z,1020.99
2019-01-05T04:30:08.082Z,1020.96
2019-01-05T04:30:43.767Z,1020.96
2019-01-05T04:31:18.902Z,1020.97
2019-01-05T04:31:54.428Z,1020.94
2019-01-05T04:32:29.892Z,1020.97
2019-01-05T04:33:05.185Z,1020.92
2019-01-05T04:33:40.630Z,1020.88
2019-01-05T04:34:16.075Z,1020.85
2019-01-05T04:34:51.199Z,1020.86
2019-01-05T04:35:26.631Z,1020.91
2019-01-05T04:36:02.246Z,1020.89
2019-01-05T04:36:37.589Z,1020.91
2019-01-05T04:37:13.124Z,1020.89
2019-01-05T04:37:48.484Z,1020.90
2019-01-05T04:38:24.000Z,1020.89
2019-01-05T04:38:59.294Z,1020.87
2019-01-05T04:39:34.707Z,1020.90
2019-01-05T04:40:10.208Z,1020.90
2019-01-05T04:40:45.840Z,1020.87
2019-01-05T04:41:21.410Z,1020.84
2019-01-05T04:41:56.622Z,1020.82
2019-01-05T04:42:32.070Z,1020.85
2019-01-05T04:43:07.375Z,1020.87
2019-01-05T04:43:42.396Z,1020.80
2019-01-05T04:44:17.964Z,1020.83
2019-01-05T04:44:53.269Z,1020.80
2019-01-05T04:45:29.205Z,1020.85
2019-01-05T04:46:04.401Z,1020.79
2019-01-05T04:46:39.750Z,1020.85
2019-01-05T04:47:15.188Z,1020.82
2019-01-05T04:47:50.596Z,1020.77
2019-01-05T04:48:25.925Z,1020.79
2019-01-05T04:49:01.424Z,1020.78
2019-01-05T04:49:36.954Z,1020.75
2019-01-05T04:50:12.071Z,1020.77
2019-01-05T04:50:47.427Z,1020.73
2019-01-05T04:51:22.766Z,1020.76
2019-01-05T04:51:57.914Z,1020.75
2019-01-05T04:52:33.244Z,1020.74
2019-01-05T04:53:08.569Z,1020.74
2019-01-05T04:53:43.904Z,1020.75
2019-01-05T04:54:19.043Z,1020.73
2019-01-05T04:54:54.445Z,1020.74
2019-01-05T04:55:30.368Z,1020.71
2019-01-05T04:56:05.878Z,1020.65
2019-01-05T04:56:41.321Z,1020.69
2019-01-05T04:57:16.909Z,1020.68
2019-01-05T04:57:52.219Z,1020.66
2019-01-05T04:58:27.446Z,1020.71
2019-01-05T04:59:02.749Z,1020.65
2019-01-05T04:59:38.181Z,1020.68
2019-01-05T05:00:13.388Z,1020.67
2019-01-05T05:00:48.621Z,1020.66
2019-01-05T05:01:24.398Z,1020.65
2019-01-05T05:01:59.396Z,1020.67
2019-01-05T05:02:34.753Z,1020.63
2019-01-05T05:03:10.252Z,1020.63
2019-01-05T05:03:45.410Z,1020.61
2019-01-05T05:04:20.751Z,1020.57
2019-01-05T05:04:56.256Z,1020.55
2019-01-05T05:05:31.677Z,1020.59
2019-01-05T05:06:07.007Z,1020.58
2019-01-05T05:06:42.248Z,1020.58
2019-01-05T05:07:17.474Z,1020.61
2019-01-05T05:07:52.839Z,1020.60
2019-01-05T05:08:28.204Z,1020.56
2019-01-05T05:09:03.574Z,1020.61
2019-01-05T05:09:39.133Z,1020.58
2019-01-05T05:10:14.652Z,1020.58
2019-01-05T05:10:49.954Z,1020.62
2019-01-05T05:11:25.602Z,1020.60
2019-01-05T05:12:01.134Z,1020.55
2019-01-05T05:12:36.485Z,1020.59
2019-01-05T05:13:11.913Z,1020.59
2019-01-05T05:13:47.347Z,1020.55
2019-01-05T05:14:22.677Z,1020.52
2019-01-05T05:14:58.074Z,1020.55
2019-01-05T05:15:33.395Z,1020.51
2019-01-05T05:16:08.510Z,1020.51
2019-01-05T05:16:43.956Z,1020.51
2019-01-05T05:17:19.183Z,1020.51
2019-01-05T05:17:54.383Z,1020.54
2019-01-05T05:18:29.739Z,1020.57
2019-01-05T05:19:05.177Z,1020.52
2019-01-05T05:19:40.612Z,1020.55
2019-01-05T05:20:16.309Z,1020.52
2019-01-05T05:20:51.722Z,1020.50
2019-01-05T05:21:27.276Z,1020.57
2019-01-05T05:22:02.687Z,1020.58
2019-01-05T05:22:38.226Z,1020.55
2019-01-05T05:23:13.783Z,1020.48
2019-01-05T05:23:49.011Z,1020.55
2019-01-05T05:24:24.448Z,1020.59
2019-01-05T05:24:59.789Z,1020.58
2019-01-05T05:25:35.005Z,1020.56
2019-01-05T05:26:10.242Z,1020.62
2019-01-05T05:26:45.591Z,1020.61
2019-01-05T05:27:21.287Z,1020.63
2019-01-05T05:27:56.601Z,1020.63
2019-01-05T05:28:32.014Z,1020.58
2019-01-05T05:29:07.446Z,1020.61
2019-01-05T05:29:42.577Z,1020.57
2019-01-05T05:30:18.001Z,1020.64
2019-01-05T05:30:53.431Z,1020.63
2019-01-05T05:31:28.660Z,1020.64
2019-01-05T05:32:04.064Z,1020.61
2019-01-05T05:32:39.404Z,1020.56
2019-01-05T05:33:14.639Z,1020.62
2019-01-05T05:33:49.891Z,1020.54
2019-01-05T05:34:25.132Z,1020.62
2019-01-05T05:35:00.337Z,1020.59
2019-01-05T05:35:35.793Z,1020.63
2019-01-05T05:36:11.277Z,1020.57
2019-01-05T05:36:46.814Z,1020.58
2019-01-05T05:37:22.316Z,1020.56
2019-01-05T05:37:57.681Z,1020.54
2019-01-05T05:38:33.025Z,1020.50
2019-01-05T05:39:08.524Z,1020.54
2019-01-05T05:39:43.670Z,1020.51
2019-01-05T05:40:18.875Z,1020.48
2019-01-05T05:40:54.206Z,1020.47
2019-01-05T05:41:29.541Z,1020.52
2019-01-05T05:42:04.764Z,1020.50
2019-01-05T05:42:40.108Z,1020.46
2019-01-05T05:43:15.530Z,1020.44
2019-01-05T05:43:50.780Z,1020.44
2019-01-05T05:44:26.201Z,1020.47
2019-01-05T05:45:01.761Z,1020.42
2019-01-05T05:45:37.159Z,1020.44
2019-01-05T05:46:12.145Z,1020.38
2019-01-05T05:46:47.539Z,1020.39
2019-01-05T05:47:22.795Z,1020.28
2019-01-05T05:47:58.542Z,1020.26
2019-01-05T05:48:33.893Z,1020.37
2019-01-05T05:49:09.307Z,1020.32
2019-01-05T05:49:44.808Z,1020.39
2019-01-05T05:50:20.328Z,1020.26
2019-01-05T05:50:55.646Z,1020.31
2019-01-05T05:51:31.053Z,1020.31
2019-01-05T05:52:06.380Z,1020.29
2019-01-05T05:52:41.702Z,1020.25
2019-01-05T05:53:17.232Z,1020.31
2019-01-05T05:53:52.754Z,1020.25
2019-01-05T05:54:28.270Z,1020.29
2019-01-05T05:55:03.924Z,1020.29
2019-01-05T05:55:39.598Z,1020.32
2019-01-05T05:56:14.976Z,1020.38
2019-01-05T05:56:50.639Z,1020.34
2019-01-05T05:57:26.065Z,1020.40
2019-01-05T05:58:01.665Z,1020.42
2019-01-05T05:58:37.435Z,1020.42
